Time;durP1;ratioP1;P1;durP2;ratioP2;P2;SDS_P1;SDS_P2;PMS_P1;PMS_P2;Temp;Humidity;BMP_temperature;BMP_pressure;BME280_temperature;BME280_humidity;BME280_pressure;Samples;Min_cycle;Max_cycle;Signal;HPM_P1;HPM_P2
2023/06/26 00:04:15;;;;;;;10.00;8.32;;;;;;;20.35;100.00;101165.34;10176072;29;20032;-77
2023/06/26 00:09:16;;;;;;;12.45;8.52;;;;;;;20.03;100.00;101127.19;10176083;29;20053;-77
2023/06/26 00:14:20;;;;;;;13.00;9.90;;;;;;;20.26;100.00;101159.69;10150390;29;20040;-77
2023/06/26 00:19:21;;;;;;;13.25;8.85;;;;;;;19.91;100.00;101100.59;10182968;29;20051;-77
2023/06/26 00:24:21;;;;;;;11.65;9.43;;;;;;;20.19;100.00;101139.69;10166526;29;20043;-77
2023/06/26 00:29:22;;;;;;;11.80;9.38;;;;;;;20.10;100.00;101116.41;10182018;29;20051;-78
2023/06/26 00:34:22;;;;;;;12.13;9.00;;;;;;;20.20;100.00;101141.34;10181158;29;20040;-78
2023/06/26 00:39:25;;;;;;;10.27;8.88;;;;;;;20.11;100.00;101120.84;10165767;29;20057;-78
2023/06/26 00:44:26;;;;;;;10.45;8.98;;;;;;;20.12;100.00;101128.94;10182293;29;20512;-77
2023/06/26 00:49:26;;;;;;;12.10;9.75;;;;;;;20.05;100.00;101116.50;10164930;29;20516;-78
2023/06/26 00:54:27;;;;;;;14.02;9.32;;;;;;;19.95;100.00;101100.81;10133283;29;20040;-78
2023/06/26 00:59:27;;;;;;;12.40;9.15;;;;;;;19.87;100.00;101087.56;10148959;29;20040;-78
2023/06/26 01:04:32;;;;;;;14.20;10.23;;;;;;;19.89;100.00;101088.91;10164593;29;20044;-78
2023/06/26 01:09:33;;;;;;;11.88;9.27;;;;;;;19.75;100.00;101057.38;10164142;29;20528;-78
2023/06/26 01:14:35;;;;;;;11.27;9.52;;;;;;;19.86;100.00;101075.56;10163674;29;20211;-77
2023/06/26 01:19:35;;;;;;;10.27;9.02;;;;;;;19.86;100.00;101081.13;10163517;29;20040;-78
2023/06/26 01:24:37;;;;;;;13.27;10.13;;;;;;;19.83;100.00;101065.00;10163919;29;20035;-78
2023/06/26 01:29:37;;;;;;;11.30;9.00;;;;;;;19.68;100.00;101042.97;10132891;29;20055;-79
2023/06/26 01:34:38;;;;;;;12.50;8.90;;;;;;;19.74;100.00;101050.09;10131263;29;20036;-79
2023/06/26 01:39:38;;;;;;;11.90;9.60;;;;;;;19.63;100.00;101038.31;10162851;29;20032;-79
2023/06/26 01:44:43;;;;;;;12.45;9.20;;;;;;;19.67;100.00;101058.06;10163056;29;20032;-78
2023/06/26 01:49:44;;;;;;;11.02;9.93;;;;;;;19.61;100.00;101054.53;10162944;29;20056;-78
2023/06/26 01:55:06;;;;;;;10.95;9.40;;;;;;;19.50;100.00;101036.34;10178788;29;20515;-78
2023/06/26 02:00:10;;;;;;;11.57;9.38;;;;;;;19.43;100.00;101028.41;10147745;29;20041;-78
2023/06/26 02:05:11;;;;;;;12.90;10.15;;;;;;;19.38;100.00;101027.69;10122646;29;20115;-78
2023/06/26 02:10:12;;;;;;;14.95;11.90;;;;;;;19.40;100.00;101023.44;10145825;29;20056;-78
2023/06/26 02:15:12;;;;;;;14.32;10.93;;;;;;;19.44;100.00;101023.63;10146887;29;20037;-78
2023/06/26 02:20:13;;;;;;;14.38;11.75;;;;;;;19.13;100.00;100965.63;10161707;29;20067;-77
2023/06/26 02:25:14;;;;;;;14.35;11.40;;;;;;;19.57;100.00;101031.16;10145422;29;20032;-77
2023/06/26 02:30:14;;;;;;;14.90;12.15;;;;;;;19.60;100.00;101015.78;10160328;29;20218;-78
2023/06/26 02:35:15;;;;;;;12.55;10.30;;;;;;;19.58;100.00;101007.72;10160327;29;20040;-77
2023/06/26 02:40:15;;;;;;;13.95;10.45;;;;;;;19.55;100.00;101017.53;10155573;29;20036;-78
2023/06/26 02:45:16;;;;;;;14.02;10.98;;;;;;;19.51;100.00;101013.72;10158338;29;20044;-79
2023/06/26 02:50:16;;;;;;;14.57;10.23;;;;;;;19.45;100.00;100998.22;10160825;29;20052;-79
2023/06/26 02:55:17;;;;;;;13.35;10.48;;;;;;;19.39;100.00;101005.03;10143528;29;20067;-79
2023/06/26 03:00:17;;;;;;;14.45;10.73;;;;;;;19.40;100.00;101006.69;10142963;29;20047;-79
2023/06/26 03:05:18;;;;;;;13.85;11.23;;;;;;;19.40;100.00;101006.69;10142904;29;20036;-79
2023/06/26 03:10:19;;;;;;;15.05;11.25;;;;;;;19.43;100.00;101003.28;10160239;29;20049;-78
2023/06/26 03:15:19;;;;;;;13.98;12.05;;;;;;;19.40;100.00;100998.31;10175417;29;20040;-78
2023/06/26 03:20:19;;;;;;;13.48;10.57;;;;;;;19.46;100.00;100999.84;10175499;29;20041;-78
2023/06/26 03:25:20;;;;;;;12.82;10.70;;;;;;;19.43;100.00;100999.63;10157857;29;20048;-78
2023/06/26 03:30:20;;;;;;;14.63;10.45;;;;;;;19.44;100.00;101006.88;10174158;29;20048;-78
2023/06/26 03:35:21;;;;;;;13.38;10.57;;;;;;;19.46;100.00;100994.25;10157772;29;20044;-78
2023/06/26 03:40:21;;;;;;;13.40;10.55;;;;;;;19.44;100.00;100999.34;10142568;29;20464;-79
2023/06/26 03:45:22;;;;;;;11.73;10.48;;;;;;;19.45;100.00;101000.16;10146631;29;20091;-78
2023/06/26 03:50:22;;;;;;;15.23;11.35;;;;;;;19.53;100.00;101010.59;10150344;29;20131;-79
2023/06/26 03:55:24;;;;;;;15.18;11.38;;;;;;;19.59;100.00;101006.56;10149583;29;20060;-79
2023/06/26 04:00:24;;;;;;;15.90;11.65;;;;;;;19.69;100.00;101005.50;10181933;29;20036;-78
2023/06/26 04:05:24;;;;;;;11.40;9.77;;;;;;;19.80;100.00;101009.75;10163760;29;20040;-78
2023/06/26 04:10:25;;;;;;;13.70;11.20;;;;;;;19.96;100.00;101002.69;10163577;29;20044;-78
2023/06/26 04:15:25;;;;;;;14.70;10.98;;;;;;;20.12;100.00;100982.78;10148944;29;20045;-77
2023/06/26 04:20:26;;;;;;;15.15;10.27;;;;;;;20.25;100.00;100986.66;10164385;29;20040;-76
2023/06/26 04:25:29;;;;;;;18.98;11.70;;;;;;;20.35;100.00;101004.00;10179389;29;20143;-78
2023/06/26 04:30:29;;;;;;;15.93;10.63;;;;;;;20.42;100.00;100994.34;10164109;29;20044;-79
2023/06/26 04:35:30;;;;;;;12.88;9.57;;;;;;;20.38;100.00;100987.72;10180534;29;20028;-79
2023/06/26 04:40:30;;;;;;;14.30;9.73;;;;;;;20.43;100.00;100993.19;10177662;29;20043;-78
2023/06/26 04:45:31;;;;;;;13.10;9.98;;;;;;;20.36;100.00;100979.66;10162304;29;20163;-78
2023/06/26 04:50:31;;;;;;;14.43;10.07;;;;;;;20.42;100.00;100978.38;10162309;29;20048;-78
2023/06/26 04:55:32;;;;;;;13.45;10.15;;;;;;;20.38;100.00;100990.53;10161531;29;20045;-77
2023/06/26 05:00:35;;;;;;;19.15;11.27;;;;;;;20.45;100.00;101005.72;10161716;29;20040;-78
2023/06/26 05:05:36;;;;;;;11.50;8.70;;;;;;;20.62;100.00;101007.00;10162114;29;20044;-77
2023/06/26 05:10:36;;;;;;;13.27;9.85;;;;;;;20.78;100.00;101010.25;10146292;29;20059;-78
2023/06/26 05:15:37;;;;;;;12.48;8.38;;;;;;;20.90;100.00;101000.09;10131388;29;20126;-74
2023/06/26 05:20:38;;;;;;;10.55;8.15;;;;;;;21.07;100.00;101024.56;10147004;29;20052;-79
2023/06/26 05:25:38;;;;;;;11.40;7.28;;;;;;;21.35;100.00;101001.94;10179061;29;20040;-78
2023/06/26 05:30:39;;;;;;;12.95;7.85;;;;;;;21.68;100.00;101021.16;10161241;29;20091;-77
2023/06/26 05:35:40;;;;;;;8.50;5.95;;;;;;;21.60;100.00;101017.22;10121447;29;20505;-77
2023/06/26 05:40:41;;;;;;;13.43;6.63;;;;;;;21.51;100.00;101017.16;10121550;29;20312;-78
2023/06/26 05:45:41;;;;;;;12.10;6.75;;;;;;;21.58;100.00;100999.06;10122570;29;20116;-77
2023/06/26 05:50:43;;;;;;;9.88;6.45;;;;;;;22.02;100.00;101051.25;10137313;29;20131;-78
2023/06/26 05:55:44;;;;;;;9.45;6.28;;;;;;;22.20;100.00;101048.44;10137568;29;20520;-78
2023/06/26 06:00:44;;;;;;;19.00;7.50;;;;;;;21.84;100.00;101050.38;10137081;29;20029;-83
2023/06/26 06:05:45;;;;;;;16.90;7.28;;;;;;;21.48;100.00;101064.63;10140409;29;20044;-86
2023/06/26 06:10:45;;;;;;;13.32;7.13;;;;;;;21.31;100.00;101079.34;10133491;29;20061;-76
2023/06/26 06:15:46;;;;;;;17.48;7.18;;;;;;;21.32;100.00;101078.19;10128913;29;20097;-78
2023/06/26 06:20:46;;;;;;;20.70;8.10;;;;;;;20.97;100.00;101097.59;10136696;29;20040;-78
2023/06/26 06:25:47;;;;;;;12.07;6.47;;;;;;;20.70;100.00;101127.38;10105110;29;20128;-74
2023/06/26 06:30:47;;;;;;;8.95;5.82;;;;;;;20.49;100.00;101154.13;10096118;29;20052;-78
2023/06/26 06:35:48;;;;;;;13.98;7.22;;;;;;;20.25;100.00;101171.97;10111143;29;20085;-78
2023/06/26 06:40:48;;;;;;;9.48;4.85;;;;;;;20.00;100.00;101176.16;10156241;29;20040;-74
2023/06/26 06:45:49;;;;;;;11.48;4.72;;;;;;;20.11;100.00;101185.13;10140798;29;20044;-75
2023/06/26 06:50:49;;;;;;;10.10;4.57;;;;;;;20.11;100.00;101193.53;10109721;29;20058;-75
2023/06/26 06:55:50;;;;;;;11.50;3.75;;;;;;;20.21;100.00;101175.72;10143264;29;20508;-77
2023/06/26 07:00:51;;;;;;;9.48;3.70;;;;;;;20.59;100.00;101192.25;10175913;29;20092;-75
2023/06/26 07:05:52;;;;;;;7.40;3.10;;;;;;;20.97;100.00;101215.16;10143969;29;20512;-74
2023/06/26 07:10:52;;;;;;;10.88;2.97;;;;;;;20.90;100.00;101239.97;10128756;29;20040;-77
2023/06/26 07:15:53;;;;;;;4.75;1.85;;;;;;;20.54;100.00;101249.94;10138204;29;20048;-81
2023/06/26 07:20:53;;;;;;;6.47;2.38;;;;;;;20.65;100.00;101247.78;10112399;29;20032;-82
2023/06/26 07:25:54;;;;;;;7.10;2.20;;;;;;;21.05;100.00;101245.19;10162236;29;20066;-82
2023/06/26 07:30:54;;;;;;;11.85;2.00;;;;;;;21.36;100.00;101236.03;10149766;29;20044;-81
2023/06/26 07:35:55;;;;;;;6.05;1.90;;;;;;;21.60;100.00;101246.09;10150370;29;20063;-81
2023/06/26 07:40:55;;;;;;;9.35;1.88;;;;;;;21.81;100.00;101250.03;10135191;29;20100;-84
2023/06/26 07:45:58;;;;;;;3.08;1.33;;;;;;;21.90;100.00;101238.88;10135787;29;20467;-81
2023/06/26 07:50:58;;;;;;;3.88;1.65;;;;;;;21.86;100.00;101251.88;10150332;29;20058;-83
2023/06/26 07:55:59;;;;;;;6.88;1.65;;;;;;;22.31;100.00;101238.56;10165608;29;20408;-85
2023/06/26 08:00:59;;;;;;;4.85;1.30;;;;;;;22.43;100.00;101253.91;10154738;29;20051;-83
2023/06/26 08:06:00;;;;;;;7.45;2.67;;;;;;;22.28;100.00;101242.03;10180595;29;20037;-76
2023/06/26 08:11:00;;;;;;;6.43;1.70;;;;;;;22.67;100.00;101243.09;10141355;29;20071;-76
2023/06/26 08:16:01;;;;;;;4.50;1.58;;;;;;;22.42;100.00;101263.50;10144905;29;20100;-75
2023/06/26 08:21:01;;;;;;;6.38;1.75;;;;;;;22.47;100.00;101266.16;10161075;29;20048;-76
2023/06/26 08:26:02;;;;;;;8.48;1.60;;;;;;;22.08;100.00;101263.03;10143795;29;20090;-75
2023/06/26 08:31:03;;;;;;;4.88;1.33;;;;;;;21.99;100.00;101286.56;10142606;29;20052;-77
2023/06/26 08:36:03;;;;;;;6.43;1.02;;;;;;;21.83;100.00;101275.75;10144603;29;20139;-77
2023/06/26 08:41:04;;;;;;;5.95;1.30;;;;;;;22.19;100.00;101291.59;10150986;29;20527;-76
2023/06/26 08:46:04;;;;;;;2.53;0.90;;;;;;;22.21;100.00;101296.91;10159860;29;20036;-76
2023/06/26 08:51:08;;;;;;;3.15;1.00;;;;;;;21.94;100.00;101293.94;10142862;29;20048;-76
2023/06/26 08:56:09;;;;;;;2.88;0.88;;;;;;;22.24;100.00;101329.91;10120970;29;20068;-77
2023/06/26 09:01:09;;;;;;;8.55;1.30;;;;;;;22.08;100.00;101315.47;10140931;29;20037;-75
2023/06/26 09:06:10;;;;;;;4.63;1.05;;;;;;;21.91;100.00;101328.25;10134414;29;20069;-77
2023/06/26 09:11:11;;;;;;;3.63;1.08;;;;;;;22.08;100.00;101343.53;10146535;29;20044;-73
2023/06/26 09:16:12;;;;;;;5.00;1.02;;;;;;;22.13;100.00;101306.91;10147078;29;20036;-74
2023/06/26 09:21:12;;;;;;;6.07;1.48;;;;;;;22.50;100.00;101344.91;10178411;29;20072;-75
2023/06/26 09:26:13;;;;;;;3.88;1.27;;;;;;;22.42;100.00;101347.66;10131380;29;20095;-76
2023/06/26 09:31:14;;;;;;;7.18;1.67;;;;;;;22.81;100.00;101344.00;10145503;29;20418;-75
2023/06/26 09:36:21;;;;;;;4.88;1.20;;;;;;;23.01;100.00;101348.22;10161342;29;20037;-78
2023/06/26 09:41:22;;;;;;;6.47;1.42;;;;;;;23.10;100.00;101359.47;10146229;29;20036;-76
2023/06/26 09:46:26;;;;;;;5.05;1.90;;;;;;;22.94;100.00;101361.88;10161209;29;20041;-75
2023/06/26 09:51:27;;;;;;;5.00;1.33;;;;;;;22.76;100.00;101364.63;10177745;29;20138;-75
2023/06/26 09:56:28;;;;;;;4.50;1.65;;;;;;;22.58;100.00;101365.72;10143110;29;20041;-80
2023/06/26 10:01:28;;;;;;;8.13;1.70;;;;;;;23.27;100.00;101350.22;10158536;29;20036;-78
2023/06/26 10:06:37;;;;;;;6.10;2.05;;;;;;;24.05;100.00;101364.25;10141848;29;20024;-74
2023/06/26 10:11:50;;;;;;;3.67;1.33;;;;;;;24.22;100.00;101349.31;10156089;29;20040;-75
2023/06/26 10:16:51;;;;;;;3.70;1.13;;;;;;;23.86;100.00;101373.06;10137862;29;20079;-75
2023/06/26 10:21:52;;;;;;;2.35;1.20;;;;;;;23.34;100.00;101367.44;10154643;29;20040;-75
2023/06/26 10:26:57;;;;;;;3.78;1.27;;;;;;;22.89;100.00;101370.47;10157424;29;20028;-77
2023/06/26 10:31:58;;;;;;;2.95;1.23;;;;;;;22.91;100.00;101373.78;10157632;29;20044;-80
2023/06/26 10:37:03;;;;;;;3.50;1.08;;;;;;;22.64;100.00;101386.06;10118895;29;20112;-79
2023/06/26 10:42:10;;;;;;;2.13;1.13;;;;;;;21.76;100.00;101309.00;10142707;29;20040;-76
2023/06/26 10:47:31;;;;;;;4.07;1.42;;;;;;;22.80;100.00;101375.19;10151810;29;20041;-76
2023/06/26 10:52:36;;;;;;;3.47;1.10;;;;;;;23.39;100.00;101386.13;10121427;29;20040;-74
2023/06/26 10:57:38;;;;;;;3.63;1.40;;;;;;;23.82;100.00;101380.50;10122737;29;20396;-77
2023/06/26 11:02:51;;;;;;;3.97;1.35;;;;;;;23.16;97.69;101392.69;10136144;29;20032;-74
2023/06/26 11:08:04;;;;;;;2.67;1.05;;;;;;;23.45;99.63;101408.09;10123990;29;20039;-79
2023/06/26 11:13:05;;;;;;;3.65;1.60;;;;;;;24.05;96.57;101397.19;10121245;29;20041;-75
2023/06/26 11:18:05;;;;;;;5.47;1.40;;;;;;;23.88;91.98;101393.25;10114046;29;20072;-77
2023/06/26 11:23:09;;;;;;;3.45;1.13;;;;;;;23.77;92.58;101391.91;10117289;29;20033;-77
2023/06/26 11:28:09;;;;;;;3.00;1.55;;;;;;;24.60;92.72;101401.19;10102967;29;20033;-79
2023/06/26 11:33:10;;;;;;;5.05;1.35;;;;;;;24.67;88.11;101390.25;10134972;29;20040;-78
2023/06/26 11:38:10;;;;;;;5.93;2.47;;;;;;;25.43;85.14;101380.88;10140013;29;20032;-78
2023/06/26 11:43:11;;;;;;;3.80;1.65;;;;;;;24.21;89.10;101412.41;10139409;29;20514;-77
2023/06/26 11:48:11;;;;;;;3.20;1.40;;;;;;;24.07;87.25;101417.38;10173062;29;20048;-79
2023/06/26 11:53:14;;;;;;;2.05;1.20;;;;;;;24.14;86.09;101407.28;10133464;29;20037;-82
2023/06/26 11:58:15;;;;;;;1.30;0.70;;;;;;;24.74;81.03;101424.31;10133967;29;20041;-77
2023/06/26 12:03:15;;;;;;;6.80;1.50;;;;;;;24.46;85.01;101423.91;10131943;29;20033;-85
2023/06/26 12:08:16;;;;;;;4.05;1.00;;;;;;;24.95;81.24;101418.75;10107746;29;20078;-78
2023/06/26 12:13:16;;;;;;;3.33;1.45;;;;;;;25.33;81.36;101440.47;10123604;29;20040;-78
2023/06/26 12:18:17;;;;;;;3.17;0.93;;;;;;;24.62;80.17;101467.28;10139519;29;20067;-70
2023/06/26 12:23:17;;;;;;;2.92;0.77;;;;;;;24.04;81.00;101465.84;10108589;29;24980;-79
2023/06/26 12:28:18;;;;;;;4.20;0.88;;;;;;;23.75;82.00;101389.44;10141794;29;20449;-76
2023/06/26 12:33:18;;;;;;;0.80;0.60;;;;;;;24.64;78.85;101447.22;10139580;29;20060;-79
2023/06/26 12:38:20;;;;;;;3.55;0.85;;;;;;;25.14;78.28;101452.97;10103156;29;20037;-90
2023/06/26 12:43:26;;;;;;;3.83;0.73;;;;;;;26.08;77.46;101453.84;10103539;29;20044;-78
2023/06/26 12:48:36;;;;;;;;;;;;;;;25.91;76.39;101475.41;10140379;29;20047;-79
2023/06/26 12:53:39;;;;;;;4.32;0.93;;;;;;;25.36;76.98;101470.78;10110908;29;20464;-79
2023/06/26 12:58:39;;;;;;;2.00;0.70;;;;;;;25.08;74.55;101465.59;10138962;29;20060;-84
2023/06/26 13:03:41;;;;;;;4.82;0.65;;;;;;;25.65;73.38;101455.00;10121229;29;20060;-80
2023/06/26 13:08:42;;;;;;;2.80;0.77;;;;;;;25.90;72.32;101479.41;10138492;29;20055;-77
2023/06/26 13:13:43;;;;;;;3.25;0.98;;;;;;;26.26;71.26;101472.25;10134905;29;20055;-75
2023/06/26 13:18:43;;;;;;;5.32;1.10;;;;;;;25.50;74.00;101459.25;10120650;29;20064;-76
2023/06/26 13:23:44;;;;;;;4.82;1.58;;;;;;;24.94;75.00;101491.16;10129263;29;20052;-78
2023/06/26 13:28:45;;;;;;;4.35;1.90;;;;;;;24.29;75.53;101493.16;10137459;29;20046;-75
2023/06/26 13:33:48;;;;;;;4.13;0.75;;;;;;;23.99;75.50;101506.22;10120669;29;20053;-77
2023/06/26 13:38:55;;;;;;;4.82;0.93;;;;;;;24.34;77.53;101503.41;10110261;29;20401;-75
2023/06/26 13:43:55;;;;;;;6.72;0.93;;;;;;;25.12;75.85;101500.38;10136228;29;20096;-85
2023/06/26 13:48:56;;;;;;;7.13;1.15;;;;;;;24.46;76.67;101522.44;10119577;29;20056;-77
2023/06/26 13:54:00;;;;;;;3.60;1.20;;;;;;;24.48;76.96;101523.75;10111741;29;20057;-78
2023/06/26 13:59:00;;;;;;;3.83;1.40;;;;;;;23.85;79.04;101514.81;10118775;29;20053;-75
2023/06/26 14:04:01;;;;;;;2.13;0.90;;;;;;;24.65;77.65;101522.91;10101521;29;20044;-78
2023/06/26 14:09:01;;;;;;;5.32;1.10;;;;;;;24.42;78.94;101527.88;10061740;29;20045;-76
2023/06/26 14:14:02;;;;;;;2.47;0.82;;;;;;;24.11;74.63;101526.06;10062597;29;20089;-77
2023/06/26 14:19:03;;;;;;;4.55;1.10;;;;;;;23.67;78.08;101470.94;10078288;29;20065;-75
2023/06/26 14:24:03;;;;;;;3.15;1.00;;;;;;;24.30;81.15;101551.06;10094377;29;20128;-74
2023/06/26 14:29:04;;;;;;;5.43;1.25;;;;;;;23.35;85.19;101555.31;10098395;29;20096;-75
2023/06/26 14:34:04;;;;;;;2.75;1.02;;;;;;;22.48;89.67;101576.44;10082452;29;20132;-74
2023/06/26 14:39:05;;;;;;;7.70;1.30;;;;;;;22.25;89.44;101576.41;10076030;29;20056;-73
2023/06/26 14:44:08;;;;;;;3.30;0.93;;;;;;;21.62;89.65;101582.84;10128259;29;20476;-75
2023/06/26 14:49:08;;;;;;;4.10;0.77;;;;;;;21.70;91.24;101565.28;10114747;29;20048;-76
2023/06/26 14:54:09;;;;;;;3.17;0.80;;;;;;;23.14;85.25;101571.94;10136129;29;20124;-73
2023/06/26 14:59:10;;;;;;;3.85;0.82;;;;;;;23.52;84.34;101570.59;10139250;29;20044;-73
2023/06/26 15:04:11;;;;;;;7.85;2.03;;;;;;;24.82;79.64;101555.00;10169600;29;20055;-78
2023/06/26 15:09:11;;;;;;;5.10;1.20;;;;;;;24.54;80.88;101567.47;10137268;29;20039;-74
2023/06/26 15:14:12;;;;;;;2.20;0.80;;;;;;;23.76;84.30;101576.66;10166545;29;20068;-76
2023/06/26 15:19:13;;;;;;;5.15;1.10;;;;;;;24.55;82.52;101579.56;10122177;29;20032;-78
2023/06/26 15:24:13;;;;;;;4.30;1.50;;;;;;;24.36;82.47;101572.25;10170499;29;20135;-84
2023/06/26 15:29:15;;;;;;;2.80;0.82;;;;;;;23.77;83.51;101588.72;10094936;29;20067;-73
2023/06/26 15:34:15;;;;;;;4.03;0.98;;;;;;;23.99;83.35;101596.22;10103550;29;20042;-75
2023/06/26 15:39:17;;;;;;;8.60;1.40;;;;;;;24.45;82.30;101591.13;10101790;29;20032;-82
2023/06/26 15:44:17;;;;;;;2.38;0.80;;;;;;;24.57;79.74;101585.69;10159560;29;20047;-74
2023/06/26 15:49:17;;;;;;;1.23;0.70;;;;;;;24.10;81.82;101611.63;10160311;29;20512;-75
2023/06/26 15:54:18;;;;;;;4.63;0.80;;;;;;;23.44;81.76;101608.78;10089410;29;20504;-75
2023/06/26 15:59:18;;;;;;;4.93;1.70;;;;;;;23.36;80.60;101606.75;10117762;29;20544;-76
2023/06/26 16:04:21;;;;;;;1.25;0.68;;;;;;;23.93;77.00;101586.28;10071532;29;20041;-73
2023/06/26 16:09:21;;;;;;;4.05;1.85;;;;;;;25.58;76.93;101593.69;10083789;29;20037;-72
2023/06/26 16:14:22;;;;;;;3.40;1.10;;;;;;;25.00;79.24;101583.97;10093647;29;20036;-75
2023/06/26 16:19:22;;;;;;;5.90;1.38;;;;;;;23.28;82.29;101622.41;10105746;29;20041;-72
2023/06/26 16:24:23;;;;;;;5.97;1.25;;;;;;;22.23;85.89;101619.94;10138881;29;20040;-68
2023/06/26 16:29:23;;;;;;;5.80;1.48;;;;;;;22.68;84.47;101601.19;10139112;29;20178;-71
2023/06/26 16:34:24;;;;;;;3.38;0.85;;;;;;;22.28;87.10;101633.84;10105952;29;20345;-71
2023/06/26 16:39:25;;;;;;;5.28;1.00;;;;;;;22.46;84.59;101618.84;10129457;29;20037;-71
2023/06/26 16:44:25;;;;;;;10.13;1.60;;;;;;;21.44;87.76;101615.44;10101777;29;20055;-71
2023/06/26 16:49:26;;;;;;;5.60;1.27;;;;;;;21.84;86.07;101604.53;10119209;29;20048;-71
2023/06/26 16:54:26;;;;;;;5.47;1.08;;;;;;;22.11;83.59;101603.63;10173268;29;20047;-75
2023/06/26 16:59:27;;;;;;;5.43;1.45;;;;;;;21.50;84.59;101615.00;10143516;29;20329;-89
2023/06/26 17:04:29;;;;;;;4.30;1.25;;;;;;;21.19;85.36;101625.09;10154401;29;20063;-78
2023/06/26 17:09:32;;;;;;;3.90;1.10;;;;;;;21.12;80.82;101622.69;10141430;29;20047;-84
2023/06/26 17:14:33;;;;;;;3.03;1.05;;;;;;;20.95;79.21;101614.88;10139521;29;20045;-89
2023/06/26 17:19:36;;;;;;;3.13;0.85;;;;;;;20.58;80.68;101615.75;10158066;29;20047;-77
2023/06/26 17:24:37;;;;;;;4.85;0.82;;;;;;;20.42;81.96;101620.75;10140228;29;20040;-77
2023/06/26 17:29:38;;;;;;;2.05;0.90;;;;;;;20.18;83.74;101641.25;10115219;29;20055;-76
2023/06/26 17:34:39;;;;;;;3.38;0.93;;;;;;;19.96;83.02;101631.44;10156322;29;20047;-81
2023/06/26 17:39:40;;;;;;;7.53;1.13;;;;;;;19.82;82.39;101636.09;10155589;29;20036;-78
2023/06/26 17:44:41;;;;;;;5.18;0.80;;;;;;;19.71;82.60;101637.38;10140621;29;20051;-83
2023/06/26 17:49:41;;;;;;;4.32;0.98;;;;;;;19.52;83.23;101651.25;10124795;29;20059;-78
2023/06/26 17:54:42;;;;;;;5.05;0.93;;;;;;;19.36;84.33;101654.19;10117884;29;20032;-83
2023/06/26 17:59:43;;;;;;;3.45;1.00;;;;;;;19.30;85.25;101665.69;10135281;29;20087;-88
2023/06/26 18:04:43;;;;;;;5.05;1.35;;;;;;;19.20;85.42;101671.38;10101164;29;20048;-81
2023/06/26 18:09:44;;;;;;;3.60;0.90;;;;;;;19.12;84.40;101675.63;10115692;29;20067;-83
2023/06/26 18:14:44;;;;;;;3.85;1.30;;;;;;;19.00;82.41;101681.63;10132567;29;20037;-82
2023/06/26 18:19:45;;;;;;;5.60;1.00;;;;;;;18.81;84.06;101667.53;10132600;29;20064;-82
2023/06/26 18:24:45;;;;;;;4.68;0.98;;;;;;;18.82;84.79;101688.72;10132899;29;20061;-84
2023/06/26 18:29:46;;;;;;;5.53;1.27;;;;;;;18.73;87.06;101707.19;10134553;29;20033;-83
2023/06/26 18:34:46;;;;;;;7.03;0.77;;;;;;;18.65;89.22;101703.03;10114150;29;20049;-77
2023/06/26 18:39:47;;;;;;;8.30;1.25;;;;;;;18.55;90.18;101717.88;10084959;29;20049;-84
2023/06/26 18:44:47;;;;;;;4.72;1.00;;;;;;;18.35;89.24;101710.47;10131027;29;20056;-82
2023/06/26 18:49:48;;;;;;;3.50;1.50;;;;;;;18.21;91.64;101722.50;10115888;29;20064;-84
2023/06/26 18:54:48;;;;;;;5.63;0.90;;;;;;;18.13;94.08;101735.91;10171256;29;20032;-85
2023/06/26 18:59:49;;;;;;;5.50;1.10;;;;;;;17.96;95.94;101729.84;10154275;29;20040;-88
2023/06/26 19:04:49;;;;;;;4.75;1.20;;;;;;;17.87;97.15;101751.03;10137724;29;20037;-82
2023/06/26 19:09:50;;;;;;;5.57;1.08;;;;;;;17.58;98.27;101731.28;10168653;29;20032;-86
2023/06/26 19:14:51;;;;;;;7.00;2.15;;;;;;;17.53;100.00;101752.47;10137408;29;20032;-88
2023/06/26 19:19:52;;;;;;;5.60;1.00;;;;;;;17.50;100.00;101758.56;10126658;29;20059;-73
2023/06/26 19:24:53;;;;;;;4.93;1.80;;;;;;;17.42;100.00;101778.63;10154096;29;20048;-73
2023/06/26 19:29:53;;;;;;;4.60;1.13;;;;;;;17.30;100.00;101772.50;10122353;29;20060;-85
2023/06/26 19:34:54;;;;;;;6.88;1.35;;;;;;;17.04;100.00;101757.75;10169786;29;20552;-83
2023/06/26 19:39:54;;;;;;;4.70;1.23;;;;;;;16.99;100.00;101786.41;10151454;29;20302;-84
2023/06/26 19:44:55;;;;;;;4.57;1.08;;;;;;;16.86;100.00;101800.81;10122407;29;20051;-83
2023/06/26 19:49:55;;;;;;;5.28;1.30;;;;;;;16.41;100.00;101739.19;10170331;29;20075;-85
2023/06/26 19:54:56;;;;;;;8.02;0.93;;;;;;;16.60;100.00;101791.53;10170871;29;20052;-83
2023/06/26 19:59:56;;;;;;;5.53;1.08;;;;;;;16.31;100.00;101773.38;10118610;29;20541;-84
2023/06/26 20:04:57;;;;;;;5.75;1.00;;;;;;;16.28;100.00;101787.78;10151437;29;20036;-78
2023/06/26 20:09:57;;;;;;;6.43;1.33;;;;;;;16.26;100.00;101801.09;10152739;29;20120;-83
2023/06/26 20:14:58;;;;;;;4.82;1.70;;;;;;;16.17;100.00;101808.28;10136448;29;20040;-79
2023/06/26 20:19:58;;;;;;;8.50;1.65;;;;;;;16.06;100.00;101812.09;10151750;29;20044;-78
2023/06/26 20:24:59;;;;;;;6.38;1.70;;;;;;;15.94;100.00;101818.72;10135748;29;20043;-79
2023/06/26 20:30:01;;;;;;;7.15;2.40;;;;;;;15.79;100.00;101815.81;10158099;29;20056;-79
2023/06/26 20:35:01;;;;;;;10.82;1.80;;;;;;;15.68;100.00;101825.97;10142222;29;20061;-80
2023/06/26 20:40:02;;;;;;;7.00;1.20;;;;;;;15.48;100.00;101818.34;10142112;29;20111;-82
2023/06/26 20:45:04;;;;;;;6.55;1.50;;;;;;;15.45;100.00;101829.94;10142916;29;20036;-80
2023/06/26 20:50:06;;;;;;;6.18;1.35;;;;;;;15.30;100.00;101830.66;10141352;29;20051;-80
2023/06/26 20:55:07;;;;;;;7.53;1.60;;;;;;;15.20;100.00;101832.50;10118718;29;20045;-81
2023/06/26 21:00:08;;;;;;;5.80;1.77;;;;;;;15.13;100.00;101833.53;10118338;29;20045;-81
2023/06/26 21:05:09;;;;;;;6.15;1.45;;;;;;;14.89;100.00;101810.81;10134620;29;20032;-80
2023/06/26 21:10:10;;;;;;;6.40;1.20;;;;;;;14.97;100.00;101839.19;10118883;29;20032;-81
2023/06/26 21:15:10;;;;;;;7.68;1.67;;;;;;;14.91;100.00;101847.44;10119642;29;20059;-81
2023/06/26 21:20:11;;;;;;;5.60;1.48;;;;;;;14.83;100.00;101847.06;10134704;29;20048;-81
2023/06/26 21:25:12;;;;;;;4.28;1.17;;;;;;;14.79;100.00;101845.91;10134325;29;20037;-81
2023/06/26 21:30:14;;;;;;;6.30;1.42;;;;;;;14.75;100.00;101833.66;10118165;29;20045;-81
2023/06/26 21:35:16;;;;;;;6.65;1.52;;;;;;;14.75;100.00;101842.81;10116807;29;20041;-80
2023/06/26 21:40:16;;;;;;;8.27;1.33;;;;;;;14.72;100.00;101844.16;10116400;29;20052;-80
2023/06/26 21:45:17;;;;;;;4.75;1.38;;;;;;;14.78;100.00;101844.22;10118083;29;20052;-80
2023/06/26 21:50:17;;;;;;;7.38;1.80;;;;;;;14.75;100.00;101850.28;10119068;29;20044;-80
2023/06/26 21:55:18;;;;;;;3.80;1.63;;;;;;;14.59;100.00;101839.00;10154660;29;20059;-80
2023/06/26 22:00:19;;;;;;;2.63;1.27;;;;;;;14.59;100.00;101844.53;10139327;29;20414;-80
2023/06/26 22:05:20;;;;;;;6.65;1.63;;;;;;;14.54;100.00;101836.16;10136389;29;20048;-81
2023/06/26 22:10:21;;;;;;;10.35;1.60;;;;;;;14.44;100.00;101836.00;10153992;29;20072;-79
2023/06/26 22:15:22;;;;;;;6.22;1.27;;;;;;;14.36;100.00;101845.59;10171191;29;20059;-78
2023/06/26 22:20:23;;;;;;;7.18;1.33;;;;;;;14.30;100.00;101841.94;10147731;29;20114;-80
2023/06/26 22:25:23;;;;;;;3.80;1.20;;;;;;;14.22;100.00;101825.75;10153718;29;20060;-80
2023/06/26 22:30:24;;;;;;;2.97;1.10;;;;;;;14.07;100.00;101822.75;10171003;29;20040;-81
2023/06/26 22:35:25;;;;;;;2.65;1.10;;;;;;;14.02;100.00;101822.69;10153973;29;20126;-80
2023/06/26 22:40:25;;;;;;;7.15;1.25;;;;;;;13.94;100.00;101821.19;10154132;29;20040;-80
2023/06/26 22:45:26;;;;;;;6.22;0.95;;;;;;;13.96;100.00;101823.72;10138320;29;20039;-79
2023/06/26 22:50:26;;;;;;;5.95;1.00;;;;;;;13.99;100.00;101823.19;10169334;29;20104;-79